sensor_id;sensor_type;location;lat;lon;timestamp;P1;durP1;ratioP1;P2;durP2;ratioP2
30681;SDS011;17439;48.092;11.842;2022-11-15T00:01:43;5.88;;;3.58;;
30681;SDS011;17439;48.092;11.842;2022-11-15T00:04:28;5.97;;;3.70;;
30681;SDS011;17439;48.092;11.842;2022-11-15T00:07:14;8.65;;;3.72;;
30681;SDS011;17439;48.092;11.842;2022-11-15T00:10:20;7.65;;;4.07;;
30681;SDS011;17439;48.092;11.842;2022-11-15T00:13:06;6.82;;;3.78;;
30681;SDS011;17439;48.092;11.842;2022-11-15T00:15:56;5.15;;;3.67;;
30681;SDS011;17439;48.092;11.842;2022-11-15T00:18:42;4.78;;;2.80;;
30681;SDS011;17439;48.092;11.842;2022-11-15T00:21:35;4.80;;;3.10;;
30681;SDS011;17439;48.092;11.842;2022-11-15T00:24:20;6.95;;;3.88;;
30681;SDS011;17439;48.092;11.842;2022-11-15T00:27:06;4.97;;;3.28;;
30681;SDS011;17439;48.092;11.842;2022-11-15T00:29:52;5.57;;;2.75;;
30681;SDS011;17439;48.092;11.842;2022-11-15T00:32:38;5.93;;;3.53;;
30681;SDS011;17439;48.092;11.842;2022-11-15T00:35:23;6.72;;;3.72;;
30681;SDS011;17439;48.092;11.842;2022-11-15T00:38:09;5.38;;;3.05;;
30681;SDS011;17439;48.092;11.842;2022-11-15T00:40:55;4.97;;;3.10;;
30681;SDS011;17439;48.092;11.842;2022-11-15T00:43:40;5.40;;;3.20;;
30681;SDS011;17439;48.092;11.842;2022-11-15T00:46:26;5.60;;;3.35;;
30681;SDS011;17439;48.092;11.842;2022-11-15T00:49:11;5.75;;;3.60;;
30681;SDS011;17439;48.092;11.842;2022-11-15T00:51:57;5.35;;;2.40;;
30681;SDS011;17439;48.092;11.842;2022-11-15T00:54:43;5.45;;;3.10;;
30681;SDS011;17439;48.092;11.842;2022-11-15T00:57:29;4.70;;;3.30;;
30681;SDS011;17439;48.092;11.842;2022-11-15T01:00:15;8.75;;;3.70;;
30681;SDS011;17439;48.092;11.842;2022-11-15T01:03:01;5.22;;;3.13;;
30681;SDS011;17439;48.092;11.842;2022-11-15T01:05:47;7.60;;;3.17;;
30681;SDS011;17439;48.092;11.842;2022-11-15T01:08:32;8.07;;;2.95;;
30681;SDS011;17439;48.092;11.842;2022-11-15T01:11:18;5.68;;;3.05;;
30681;SDS011;17439;48.092;11.842;2022-11-15T01:14:03;5.75;;;3.20;;
30681;SDS011;17439;48.092;11.842;2022-11-15T01:16:49;6.80;;;2.85;;
30681;SDS011;17439;48.092;11.842;2022-11-15T01:19:35;3.65;;;2.35;;
30681;SDS011;17439;48.092;11.842;2022-11-15T01:22:21;4.03;;;2.30;;
30681;SDS011;17439;48.092;11.842;2022-11-15T01:25:07;4.07;;;2.50;;
30681;SDS011;17439;48.092;11.842;2022-11-15T01:27:53;3.75;;;2.58;;
30681;SDS011;17439;48.092;11.842;2022-11-15T01:30:38;5.13;;;2.90;;
30681;SDS011;17439;48.092;11.842;2022-11-15T01:33:24;6.53;;;3.30;;
30681;SDS011;17439;48.092;11.842;2022-11-15T01:36:11;4.18;;;2.78;;
30681;SDS011;17439;48.092;11.842;2022-11-15T01:39:01;5.72;;;2.80;;
30681;SDS011;17439;48.092;11.842;2022-11-15T01:41:48;5.75;;;2.92;;
30681;SDS011;17439;48.092;11.842;2022-11-15T01:47:20;4.65;;;2.88;;
30681;SDS011;17439;48.092;11.842;2022-11-15T01:50:10;5.35;;;3.17;;
30681;SDS011;17439;48.092;11.842;2022-11-15T01:53:00;7.85;;;3.28;;
30681;SDS011;17439;48.092;11.842;2022-11-15T01:55:46;7.30;;;3.40;;
30681;SDS011;17439;48.092;11.842;2022-11-15T01:58:32;4.88;;;3.25;;
30681;SDS011;17439;48.092;11.842;2022-11-15T02:01:18;7.07;;;3.00;;
30681;SDS011;17439;48.092;11.842;2022-11-15T02:04:17;5.63;;;3.17;;
30681;SDS011;17439;48.092;11.842;2022-11-15T02:07:06;8.95;;;3.45;;
30681;SDS011;17439;48.092;11.842;2022-11-15T02:09:55;6.53;;;3.55;;
30681;SDS011;17439;48.092;11.842;2022-11-15T02:12:49;9.32;;;4.63;;
30681;SDS011;17439;48.092;11.842;2022-11-15T02:15:40;7.40;;;3.50;;
30681;SDS011;17439;48.092;11.842;2022-11-15T02:18:52;6.90;;;4.00;;
30681;SDS011;17439;48.092;11.842;2022-11-15T02:38:08;8.57;;;3.40;;
30681;SDS011;17439;48.092;11.842;2022-11-15T02:44:27;8.90;;;4.15;;
30681;SDS011;17439;48.092;11.842;2022-11-15T02:47:18;6.97;;;3.88;;
30681;SDS011;17439;48.092;11.842;2022-11-15T02:50:07;7.63;;;4.00;;
30681;SDS011;17439;48.092;11.842;2022-11-15T02:52:55;7.68;;;4.10;;
30681;SDS011;17439;48.092;11.842;2022-11-15T02:55:42;5.60;;;3.13;;
30681;SDS011;17439;48.092;11.842;2022-11-15T02:58:53;5.60;;;3.15;;
30681;SDS011;17439;48.092;11.842;2022-11-15T03:08:08;5.30;;;2.53;;
30681;SDS011;17439;48.092;11.842;2022-11-15T03:11:09;4.07;;;2.65;;
30681;SDS011;17439;48.092;11.842;2022-11-15T03:17:01;3.85;;;2.30;;
30681;SDS011;17439;48.092;11.842;2022-11-15T03:19:56;4.35;;;2.45;;
30681;SDS011;17439;48.092;11.842;2022-11-15T03:22:44;5.28;;;3.55;;
30681;SDS011;17439;48.092;11.842;2022-11-15T03:25:32;4.60;;;2.80;;
30681;SDS011;17439;48.092;11.842;2022-11-15T03:31:08;6.35;;;3.05;;
30681;SDS011;17439;48.092;11.842;2022-11-15T03:33:57;4.03;;;2.30;;
30681;SDS011;17439;48.092;11.842;2022-11-15T03:36:47;5.85;;;3.08;;
30681;SDS011;17439;48.092;11.842;2022-11-15T03:39:34;4.20;;;2.75;;
30681;SDS011;17439;48.092;11.842;2022-11-15T03:42:22;4.10;;;2.40;;
30681;SDS011;17439;48.092;11.842;2022-11-15T03:45:27;6.30;;;2.30;;
30681;SDS011;17439;48.092;11.842;2022-11-15T03:48:18;4.25;;;2.38;;
30681;SDS011;17439;48.092;11.842;2022-11-15T03:51:09;3.58;;;2.05;;
30681;SDS011;17439;48.092;11.842;2022-11-15T03:53:56;3.03;;;1.85;;
30681;SDS011;17439;48.092;11.842;2022-11-15T03:56:41;2.63;;;1.85;;
30681;SDS011;17439;48.092;11.842;2022-11-15T03:59:27;2.58;;;1.95;;
30681;SDS011;17439;48.092;11.842;2022-11-15T04:02:13;3.17;;;2.10;;
30681;SDS011;17439;48.092;11.842;2022-11-15T04:04:59;3.42;;;2.20;;
30681;SDS011;17439;48.092;11.842;2022-11-15T04:07:45;3.50;;;2.38;;
30681;SDS011;17439;48.092;11.842;2022-11-15T04:10:31;4.10;;;2.17;;
30681;SDS011;17439;48.092;11.842;2022-11-15T04:13:17;5.18;;;2.75;;
30681;SDS011;17439;48.092;11.842;2022-11-15T04:16:02;4.78;;;2.38;;
30681;SDS011;17439;48.092;11.842;2022-11-15T04:18:48;5.30;;;2.40;;
30681;SDS011;17439;48.092;11.842;2022-11-15T04:21:34;3.70;;;2.35;;
30681;SDS011;17439;48.092;11.842;2022-11-15T04:24:19;4.15;;;2.05;;
30681;SDS011;17439;48.092;11.842;2022-11-15T04:27:05;3.28;;;2.40;;
30681;SDS011;17439;48.092;11.842;2022-11-15T04:29:50;4.50;;;2.53;;
30681;SDS011;17439;48.092;11.842;2022-11-15T04:32:36;4.18;;;2.28;;
30681;SDS011;17439;48.092;11.842;2022-11-15T04:35:22;3.58;;;2.00;;
30681;SDS011;17439;48.092;11.842;2022-11-15T04:38:08;3.25;;;1.80;;
30681;SDS011;17439;48.092;11.842;2022-11-15T04:40:55;4.10;;;2.23;;
30681;SDS011;17439;48.092;11.842;2022-11-15T04:43:40;3.65;;;1.65;;
30681;SDS011;17439;48.092;11.842;2022-11-15T04:46:26;3.78;;;1.70;;
30681;SDS011;17439;48.092;11.842;2022-11-15T04:49:12;3.83;;;1.85;;
30681;SDS011;17439;48.092;11.842;2022-11-15T04:51:57;2.83;;;1.70;;
30681;SDS011;17439;48.092;11.842;2022-11-15T04:54:43;4.03;;;1.83;;
30681;SDS011;17439;48.092;11.842;2022-11-15T04:57:29;2.67;;;1.63;;
30681;SDS011;17439;48.092;11.842;2022-11-15T05:00:15;2.38;;;1.58;;
30681;SDS011;17439;48.092;11.842;2022-11-15T05:03:02;3.50;;;1.95;;
30681;SDS011;17439;48.092;11.842;2022-11-15T05:05:48;2.30;;;1.63;;
30681;SDS011;17439;48.092;11.842;2022-11-15T05:08:33;3.15;;;1.80;;
30681;SDS011;17439;48.092;11.842;2022-11-15T05:11:19;2.85;;;1.80;;
30681;SDS011;17439;48.092;11.842;2022-11-15T05:14:05;2.60;;;1.60;;
30681;SDS011;17439;48.092;11.842;2022-11-15T05:16:51;4.82;;;2.03;;
30681;SDS011;17439;48.092;11.842;2022-11-15T05:19:36;3.25;;;1.42;;
30681;SDS011;17439;48.092;11.842;2022-11-15T05:22:21;3.42;;;1.55;;
30681;SDS011;17439;48.092;11.842;2022-11-15T05:25:07;2.35;;;1.33;;
30681;SDS011;17439;48.092;11.842;2022-11-15T05:27:53;3.00;;;1.80;;
30681;SDS011;17439;48.092;11.842;2022-11-15T05:30:39;2.40;;;1.48;;
30681;SDS011;17439;48.092;11.842;2022-11-15T05:33:24;1.73;;;1.27;;
30681;SDS011;17439;48.092;11.842;2022-11-15T05:36:27;3.78;;;1.73;;
30681;SDS011;17439;48.092;11.842;2022-11-15T05:39:18;2.97;;;1.38;;
30681;SDS011;17439;48.092;11.842;2022-11-15T05:42:13;2.92;;;1.50;;
30681;SDS011;17439;48.092;11.842;2022-11-15T05:45:01;2.65;;;1.90;;
30681;SDS011;17439;48.092;11.842;2022-11-15T05:47:49;2.15;;;1.20;;
30681;SDS011;17439;48.092;11.842;2022-11-15T05:50:36;6.37;;;1.90;;
30681;SDS011;17439;48.092;11.842;2022-11-15T05:53:26;1.92;;;1.27;;
30681;SDS011;17439;48.092;11.842;2022-11-15T05:56:12;1.83;;;1.30;;
30681;SDS011;17439;48.092;11.842;2022-11-15T05:58:59;3.73;;;2.10;;
30681;SDS011;17439;48.092;11.842;2022-11-15T06:01:45;3.80;;;1.77;;
30681;SDS011;17439;48.092;11.842;2022-11-15T06:04:31;4.72;;;1.63;;
30681;SDS011;17439;48.092;11.842;2022-11-15T06:07:17;2.65;;;1.52;;
30681;SDS011;17439;48.092;11.842;2022-11-15T06:10:03;3.15;;;1.55;;
30681;SDS011;17439;48.092;11.842;2022-11-15T06:12:55;3.20;;;1.92;;
30681;SDS011;17439;48.092;11.842;2022-11-15T06:15:45;3.60;;;1.63;;
30681;SDS011;17439;48.092;11.842;2022-11-15T06:18:31;4.55;;;2.70;;
30681;SDS011;17439;48.092;11.842;2022-11-15T06:21:18;5.15;;;2.13;;
30681;SDS011;17439;48.092;11.842;2022-11-15T06:24:05;4.50;;;2.60;;
30681;SDS011;17439;48.092;11.842;2022-11-15T06:26:51;3.72;;;1.98;;
30681;SDS011;17439;48.092;11.842;2022-11-15T06:29:37;3.25;;;1.58;;
30681;SDS011;17439;48.092;11.842;2022-11-15T06:32:23;2.60;;;1.55;;
30681;SDS011;17439;48.092;11.842;2022-11-15T06:35:09;1.52;;;1.23;;
30681;SDS011;17439;48.092;11.842;2022-11-15T06:37:54;4.78;;;1.50;;
30681;SDS011;17439;48.092;11.842;2022-11-15T06:40:40;13.45;;;1.60;;
30681;SDS011;17439;48.092;11.842;2022-11-15T06:43:26;3.33;;;1.70;;
30681;SDS011;17439;48.092;11.842;2022-11-15T06:46:12;4.10;;;2.25;;
30681;SDS011;17439;48.092;11.842;2022-11-15T06:48:57;2.35;;;1.48;;
30681;SDS011;17439;48.092;11.842;2022-11-15T06:51:43;4.22;;;2.03;;
30681;SDS011;17439;48.092;11.842;2022-11-15T06:54:29;2.15;;;1.60;;
30681;SDS011;17439;48.092;11.842;2022-11-15T06:57:14;1.75;;;1.40;;
30681;SDS011;17439;48.092;11.842;2022-11-15T07:00:00;4.05;;;1.70;;
30681;SDS011;17439;48.092;11.842;2022-11-15T07:02:47;2.50;;;1.67;;
30681;SDS011;17439;48.092;11.842;2022-11-15T07:05:33;5.38;;;1.20;;
30681;SDS011;17439;48.092;11.842;2022-11-15T07:08:20;2.97;;;1.52;;
30681;SDS011;17439;48.092;11.842;2022-11-15T07:11:06;2.67;;;1.67;;
30681;SDS011;17439;48.092;11.842;2022-11-15T07:13:52;2.58;;;1.60;;
30681;SDS011;17439;48.092;11.842;2022-11-15T07:16:38;3.58;;;1.90;;
30681;SDS011;17439;48.092;11.842;2022-11-15T07:19:23;2.20;;;1.40;;
30681;SDS011;17439;48.092;11.842;2022-11-15T07:22:09;3.30;;;1.70;;
30681;SDS011;17439;48.092;11.842;2022-11-15T07:24:55;2.20;;;1.55;;
30681;SDS011;17439;48.092;11.842;2022-11-15T07:27:40;2.63;;;1.63;;
30681;SDS011;17439;48.092;11.842;2022-11-15T07:30:26;4.90;;;2.03;;
30681;SDS011;17439;48.092;11.842;2022-11-15T07:33:12;2.85;;;2.00;;
30681;SDS011;17439;48.092;11.842;2022-11-15T07:35:58;2.97;;;1.52;;
30681;SDS011;17439;48.092;11.842;2022-11-15T07:38:45;3.78;;;2.13;;
30681;SDS011;17439;48.092;11.842;2022-11-15T07:41:30;2.30;;;1.20;;
30681;SDS011;17439;48.092;11.842;2022-11-15T07:44:16;3.67;;;2.55;;
30681;SDS011;17439;48.092;11.842;2022-11-15T07:47:02;3.22;;;1.48;;
30681;SDS011;17439;48.092;11.842;2022-11-15T07:49:47;2.20;;;1.42;;
30681;SDS011;17439;48.092;11.842;2022-11-15T07:52:33;3.15;;;1.80;;
30681;SDS011;17439;48.092;11.842;2022-11-15T07:55:18;5.85;;;2.20;;
30681;SDS011;17439;48.092;11.842;2022-11-15T07:58:05;5.57;;;2.03;;
30681;SDS011;17439;48.092;11.842;2022-11-15T08:00:52;6.20;;;2.10;;
30681;SDS011;17439;48.092;11.842;2022-11-15T08:03:37;6.22;;;2.10;;
30681;SDS011;17439;48.092;11.842;2022-11-15T08:06:23;4.05;;;2.40;;
30681;SDS011;17439;48.092;11.842;2022-11-15T08:09:09;14.68;;;2.60;;
30681;SDS011;17439;48.092;11.842;2022-11-15T08:11:54;3.88;;;2.28;;
30681;SDS011;17439;48.092;11.842;2022-11-15T08:14:39;3.47;;;1.40;;
30681;SDS011;17439;48.092;11.842;2022-11-15T08:17:25;2.38;;;1.35;;
30681;SDS011;17439;48.092;11.842;2022-11-15T08:20:11;2.60;;;1.52;;
30681;SDS011;17439;48.092;11.842;2022-11-15T08:22:57;4.10;;;1.80;;
30681;SDS011;17439;48.092;11.842;2022-11-15T08:25:47;2.58;;;1.55;;
30681;SDS011;17439;48.092;11.842;2022-11-15T08:28:32;2.85;;;1.90;;
30681;SDS011;17439;48.092;11.842;2022-11-15T08:31:18;5.43;;;2.25;;
30681;SDS011;17439;48.092;11.842;2022-11-15T08:34:04;5.28;;;2.92;;
30681;SDS011;17439;48.092;11.842;2022-11-15T08:36:51;6.30;;;2.80;;
30681;SDS011;17439;48.092;11.842;2022-11-15T08:39:36;3.92;;;2.30;;
30681;SDS011;17439;48.092;11.842;2022-11-15T08:42:22;5.45;;;2.60;;
30681;SDS011;17439;48.092;11.842;2022-11-15T08:45:08;4.40;;;2.25;;
30681;SDS011;17439;48.092;11.842;2022-11-15T08:47:53;2.13;;;1.40;;
30681;SDS011;17439;48.092;11.842;2022-11-15T08:50:39;1.95;;;1.48;;
30681;SDS011;17439;48.092;11.842;2022-11-15T08:53:25;2.45;;;1.52;;
30681;SDS011;17439;48.092;11.842;2022-11-15T08:56:11;2.00;;;1.30;;
30681;SDS011;17439;48.092;11.842;2022-11-15T08:58:58;3.30;;;1.65;;
30681;SDS011;17439;48.092;11.842;2022-11-15T09:01:44;3.33;;;2.00;;
30681;SDS011;17439;48.092;11.842;2022-11-15T09:04:30;2.70;;;1.50;;
30681;SDS011;17439;48.092;11.842;2022-11-15T09:07:16;3.47;;;1.90;;
30681;SDS011;17439;48.092;11.842;2022-11-15T09:10:02;4.60;;;1.35;;
30681;SDS011;17439;48.092;11.842;2022-11-15T09:12:48;2.47;;;1.40;;
30681;SDS011;17439;48.092;11.842;2022-11-15T09:15:34;8.02;;;1.60;;
30681;SDS011;17439;48.092;11.842;2022-11-15T09:18:19;3.78;;;2.22;;
30681;SDS011;17439;48.092;11.842;2022-11-15T09:21:06;3.37;;;1.73;;
30681;SDS011;17439;48.092;11.842;2022-11-15T09:23:52;4.30;;;1.95;;
30681;SDS011;17439;48.092;11.842;2022-11-15T09:26:38;2.60;;;1.77;;
30681;SDS011;17439;48.092;11.842;2022-11-15T09:29:24;2.90;;;1.88;;
30681;SDS011;17439;48.092;11.842;2022-11-15T09:32:10;2.63;;;1.60;;
30681;SDS011;17439;48.092;11.842;2022-11-15T09:34:56;3.38;;;2.05;;
30681;SDS011;17439;48.092;11.842;2022-11-15T09:37:42;3.22;;;1.98;;
30681;SDS011;17439;48.092;11.842;2022-11-15T09:40:29;2.47;;;2.00;;
30681;SDS011;17439;48.092;11.842;2022-11-15T09:49:22;3.15;;;1.70;;
30681;SDS011;17439;48.092;11.842;2022-11-15T09:51:50;4.85;;;2.00;;
30681;SDS011;17439;48.092;11.842;2022-11-15T09:54:22;5.22;;;1.55;;
30681;SDS011;17439;48.092;11.842;2022-11-15T09:57:33;3.25;;;1.83;;
30681;SDS011;17439;48.092;11.842;2022-11-15T10:00:22;4.25;;;1.80;;
30681;SDS011;17439;48.092;11.842;2022-11-15T10:03:16;2.00;;;1.35;;
30681;SDS011;17439;48.092;11.842;2022-11-15T10:05:47;2.53;;;1.70;;
30681;SDS011;17439;48.092;11.842;2022-11-15T10:11:03;3.10;;;1.67;;
30681;SDS011;17439;48.092;11.842;2022-11-15T10:13:55;2.17;;;1.50;;
30681;SDS011;17439;48.092;11.842;2022-11-15T10:19:38;2.95;;;1.90;;
30681;SDS011;17439;48.092;11.842;2022-11-15T10:22:17;2.90;;;1.90;;
30681;SDS011;17439;48.092;11.842;2022-11-15T10:24:47;2.90;;;2.10;;
30681;SDS011;17439;48.092;11.842;2022-11-15T10:27:17;2.85;;;1.35;;
30681;SDS011;17439;48.092;11.842;2022-11-15T10:29:46;2.47;;;1.73;;
30681;SDS011;17439;48.092;11.842;2022-11-15T10:32:19;2.50;;;1.65;;
30681;SDS011;17439;48.092;11.842;2022-11-15T10:34:48;3.33;;;1.75;;
30681;SDS011;17439;48.092;11.842;2022-11-15T10:37:28;3.08;;;1.80;;
30681;SDS011;17439;48.092;11.842;2022-11-15T10:40:13;4.13;;;1.95;;
30681;SDS011;17439;48.092;11.842;2022-11-15T10:43:03;3.10;;;2.10;;
30681;SDS011;17439;48.092;11.842;2022-11-15T10:45:34;3.33;;;2.10;;
30681;SDS011;17439;48.092;11.842;2022-11-15T10:48:22;3.87;;;2.33;;
30681;SDS011;17439;48.092;11.842;2022-11-15T10:50:49;3.55;;;1.98;;
30681;SDS011;17439;48.092;11.842;2022-11-15T10:55:52;1.98;;;1.63;;
30681;SDS011;17439;48.092;11.842;2022-11-15T11:03:39;3.05;;;1.40;;
30681;SDS011;17439;48.092;11.842;2022-11-15T11:06:15;2.78;;;1.90;;
30681;SDS011;17439;48.092;11.842;2022-11-15T11:09:00;3.15;;;2.15;;
30681;SDS011;17439;48.092;11.842;2022-11-15T11:11:43;4.28;;;2.03;;
30681;SDS011;17439;48.092;11.842;2022-11-15T11:14:13;3.08;;;1.83;;
30681;SDS011;17439;48.092;11.842;2022-11-15T11:16:49;2.13;;;1.70;;
30681;SDS011;17439;48.092;11.842;2022-11-15T11:22:32;5.22;;;2.03;;
30681;SDS011;17439;48.092;11.842;2022-11-15T11:28:05;3.38;;;2.00;;
30681;SDS011;17439;48.092;11.842;2022-11-15T11:33:52;1.52;;;1.20;;
30681;SDS011;17439;48.092;11.842;2022-11-15T11:42:10;2.25;;;1.50;;
30681;SDS011;17439;48.092;11.842;2022-11-15T11:47:39;3.85;;;1.50;;
30681;SDS011;17439;48.092;11.842;2022-11-15T11:50:12;3.97;;;1.63;;
30681;SDS011;17439;48.092;11.842;2022-11-15T11:53:00;2.20;;;1.50;;
30681;SDS011;17439;48.092;11.842;2022-11-15T11:55:33;1.65;;;1.42;;
30681;SDS011;17439;48.092;11.842;2022-11-15T11:58:19;3.45;;;1.55;;
30681;SDS011;17439;48.092;11.842;2022-11-15T12:00:59;3.20;;;1.58;;
30681;SDS011;17439;48.092;11.842;2022-11-15T12:09:15;2.90;;;1.67;;
30681;SDS011;17439;48.092;11.842;2022-11-15T12:11:57;1.55;;;1.27;;
30681;SDS011;17439;48.092;11.842;2022-11-15T12:17:10;1.75;;;1.50;;
30681;SDS011;17439;48.092;11.842;2022-11-15T12:19:38;3.67;;;1.17;;
30681;SDS011;17439;48.092;11.842;2022-11-15T12:22:09;3.30;;;1.35;;
30681;SDS011;17439;48.092;11.842;2022-11-15T12:24:39;1.98;;;1.20;;
30681;SDS011;17439;48.092;11.842;2022-11-15T12:27:15;2.30;;;1.27;;
30681;SDS011;17439;48.092;11.842;2022-11-15T12:29:51;1.65;;;1.13;;
30681;SDS011;17439;48.092;11.842;2022-11-15T12:34:53;2.22;;;1.50;;
30681;SDS011;17439;48.092;11.842;2022-11-15T12:45:43;2.28;;;1.42;;
30681;SDS011;17439;48.092;11.842;2022-11-15T12:50:52;2.45;;;1.60;;
30681;SDS011;17439;48.092;11.842;2022-11-15T12:56:35;1.40;;;1.05;;
30681;SDS011;17439;48.092;11.842;2022-11-15T13:07:04;4.70;;;1.70;;
30681;SDS011;17439;48.092;11.842;2022-11-15T13:19:43;1.92;;;1.52;;
30681;SDS011;17439;48.092;11.842;2022-11-15T13:22:13;4.65;;;1.80;;
30681;SDS011;17439;48.092;11.842;2022-11-15T13:24:41;2.03;;;1.55;;
30681;SDS011;17439;48.092;11.842;2022-11-15T13:27:14;2.58;;;1.75;;
30681;SDS011;17439;48.092;11.842;2022-11-15T13:29:44;1.90;;;1.25;;
30681;SDS011;17439;48.092;11.842;2022-11-15T13:32:12;2.08;;;1.35;;
30681;SDS011;17439;48.092;11.842;2022-11-15T13:34:45;4.75;;;1.70;;
30681;SDS011;17439;48.092;11.842;2022-11-15T13:39:48;2.50;;;1.58;;
30681;SDS011;17439;48.092;11.842;2022-11-15T13:42:17;2.50;;;1.98;;
30681;SDS011;17439;48.092;11.842;2022-11-15T13:45:02;2.08;;;1.52;;
30681;SDS011;17439;48.092;11.842;2022-11-15T13:47:31;1.92;;;1.50;;
30681;SDS011;17439;48.092;11.842;2022-11-15T13:49:59;2.38;;;1.52;;
30681;SDS011;17439;48.092;11.842;2022-11-15T13:55:02;2.35;;;1.60;;
30681;SDS011;17439;48.092;11.842;2022-11-15T13:57:42;3.17;;;2.13;;
30681;SDS011;17439;48.092;11.842;2022-11-15T14:02:54;3.53;;;1.55;;
30681;SDS011;17439;48.092;11.842;2022-11-15T14:07:53;3.47;;;1.95;;
30681;SDS011;17439;48.092;11.842;2022-11-15T14:13:00;1.30;;;1.20;;
30681;SDS011;17439;48.092;11.842;2022-11-15T14:15:35;3.67;;;1.83;;
30681;SDS011;17439;48.092;11.842;2022-11-15T14:18:04;3.75;;;2.30;;
30681;SDS011;17439;48.092;11.842;2022-11-15T14:20:35;3.58;;;1.83;;
30681;SDS011;17439;48.092;11.842;2022-11-15T14:25:54;2.83;;;1.83;;
30681;SDS011;17439;48.092;11.842;2022-11-15T14:30:50;2.70;;;1.90;;
30681;SDS011;17439;48.092;11.842;2022-11-15T14:35:55;2.95;;;1.95;;
30681;SDS011;17439;48.092;11.842;2022-11-15T14:38:24;2.70;;;1.80;;
30681;SDS011;17439;48.092;11.842;2022-11-15T14:40:52;2.83;;;2.08;;
30681;SDS011;17439;48.092;11.842;2022-11-15T14:43:19;4.78;;;2.85;;
30681;SDS011;17439;48.092;11.842;2022-11-15T14:45:46;4.20;;;2.53;;
30681;SDS011;17439;48.092;11.842;2022-11-15T14:48:14;3.97;;;2.15;;
30681;SDS011;17439;48.092;11.842;2022-11-15T14:50:41;4.57;;;2.00;;
30681;SDS011;17439;48.092;11.842;2022-11-15T14:53:11;5.50;;;1.90;;
30681;SDS011;17439;48.092;11.842;2022-11-15T14:55:43;2.47;;;1.67;;
30681;SDS011;17439;48.092;11.842;2022-11-15T14:58:10;5.40;;;1.85;;
30681;SDS011;17439;48.092;11.842;2022-11-15T15:00:38;3.33;;;2.40;;
30681;SDS011;17439;48.092;11.842;2022-11-15T15:03:07;3.15;;;2.33;;
30681;SDS011;17439;48.092;11.842;2022-11-15T15:05:36;2.60;;;1.70;;
30681;SDS011;17439;48.092;11.842;2022-11-15T15:08:05;4.57;;;2.20;;
30681;SDS011;17439;48.092;11.842;2022-11-15T15:10:34;5.22;;;2.50;;
30681;SDS011;17439;48.092;11.842;2022-11-15T15:13:20;3.63;;;2.28;;
30681;SDS011;17439;48.092;11.842;2022-11-15T15:15:49;2.55;;;1.63;;
30681;SDS011;17439;48.092;11.842;2022-11-15T15:18:18;2.55;;;1.60;;
30681;SDS011;17439;48.092;11.842;2022-11-15T15:20:54;2.45;;;1.60;;
30681;SDS011;17439;48.092;11.842;2022-11-15T15:23:23;3.60;;;1.80;;
30681;SDS011;17439;48.092;11.842;2022-11-15T15:25:51;7.20;;;1.57;;
30681;SDS011;17439;48.092;11.842;2022-11-15T15:28:18;2.70;;;1.20;;
30681;SDS011;17439;48.092;11.842;2022-11-15T15:30:45;2.30;;;1.42;;
30681;SDS011;17439;48.092;11.842;2022-11-15T15:33:12;2.65;;;1.55;;
30681;SDS011;17439;48.092;11.842;2022-11-15T15:35:39;4.00;;;1.73;;
30681;SDS011;17439;48.092;11.842;2022-11-15T15:38:08;3.50;;;1.75;;
30681;SDS011;17439;48.092;11.842;2022-11-15T15:40:37;3.70;;;2.13;;
30681;SDS011;17439;48.092;11.842;2022-11-15T15:43:05;3.17;;;1.98;;
30681;SDS011;17439;48.092;11.842;2022-11-15T15:45:32;6.95;;;2.90;;
30681;SDS011;17439;48.092;11.842;2022-11-15T15:47:59;7.27;;;2.07;;
30681;SDS011;17439;48.092;11.842;2022-11-15T15:50:27;3.47;;;2.40;;
30681;SDS011;17439;48.092;11.842;2022-11-15T15:52:57;2.30;;;1.65;;
30681;SDS011;17439;48.092;11.842;2022-11-15T15:55:25;5.25;;;1.88;;
30681;SDS011;17439;48.092;11.842;2022-11-15T15:57:53;3.33;;;1.83;;
30681;SDS011;17439;48.092;11.842;2022-11-15T16:00:21;4.33;;;2.20;;
30681;SDS011;17439;48.092;11.842;2022-11-15T16:02:50;4.70;;;2.90;;
30681;SDS011;17439;48.092;11.842;2022-11-15T16:07:45;3.90;;;2.10;;
30681;SDS011;17439;48.092;11.842;2022-11-15T16:10:16;2.78;;;1.50;;
30681;SDS011;17439;48.092;11.842;2022-11-15T16:12:46;3.17;;;1.73;;
30681;SDS011;17439;48.092;11.842;2022-11-15T16:15:14;5.35;;;1.88;;
30681;SDS011;17439;48.092;11.842;2022-11-15T16:17:43;4.73;;;2.57;;
30681;SDS011;17439;48.092;11.842;2022-11-15T16:20:31;2.40;;;1.80;;
30681;SDS011;17439;48.092;11.842;2022-11-15T16:23:11;5.25;;;2.67;;
30681;SDS011;17439;48.092;11.842;2022-11-15T16:28:30;6.72;;;3.10;;
30681;SDS011;17439;48.092;11.842;2022-11-15T16:31:09;6.07;;;3.30;;
30681;SDS011;17439;48.092;11.842;2022-11-15T16:33:38;16.15;;;4.25;;
30681;SDS011;17439;48.092;11.842;2022-11-15T16:36:10;7.40;;;4.32;;
30681;SDS011;17439;48.092;11.842;2022-11-15T16:38:50;6.05;;;3.00;;
30681;SDS011;17439;48.092;11.842;2022-11-15T16:41:17;4.82;;;2.45;;
30681;SDS011;17439;48.092;11.842;2022-11-15T16:43:45;4.65;;;2.72;;
30681;SDS011;17439;48.092;11.842;2022-11-15T16:46:14;4.90;;;2.63;;
30681;SDS011;17439;48.092;11.842;2022-11-15T16:48:44;5.90;;;2.85;;
30681;SDS011;17439;48.092;11.842;2022-11-15T16:51:12;6.68;;;1.95;;
30681;SDS011;17439;48.092;11.842;2022-11-15T16:53:39;7.30;;;2.43;;
30681;SDS011;17439;48.092;11.842;2022-11-15T16:58:45;3.70;;;1.73;;
30681;SDS011;17439;48.092;11.842;2022-11-15T17:01:22;4.45;;;2.33;;
30681;SDS011;17439;48.092;11.842;2022-11-15T17:03:52;3.90;;;2.83;;
30681;SDS011;17439;48.092;11.842;2022-11-15T17:06:23;6.55;;;3.00;;
30681;SDS011;17439;48.092;11.842;2022-11-15T17:08:51;4.30;;;2.20;;
30681;SDS011;17439;48.092;11.842;2022-11-15T17:11:20;3.92;;;2.40;;
30681;SDS011;17439;48.092;11.842;2022-11-15T17:13:48;6.82;;;2.30;;
30681;SDS011;17439;48.092;11.842;2022-11-15T17:16:16;4.30;;;2.55;;
30681;SDS011;17439;48.092;11.842;2022-11-15T17:21:12;3.22;;;2.40;;
30681;SDS011;17439;48.092;11.842;2022-11-15T17:23:41;3.83;;;2.10;;
30681;SDS011;17439;48.092;11.842;2022-11-15T17:26:10;4.47;;;2.58;;
30681;SDS011;17439;48.092;11.842;2022-11-15T17:28:55;5.88;;;2.42;;
30681;SDS011;17439;48.092;11.842;2022-11-15T17:31:22;4.87;;;1.90;;
30681;SDS011;17439;48.092;11.842;2022-11-15T17:33:49;4.82;;;2.25;;
30681;SDS011;17439;48.092;11.842;2022-11-15T17:36:17;4.65;;;2.10;;
30681;SDS011;17439;48.092;11.842;2022-11-15T17:38:44;9.50;;;2.53;;
30681;SDS011;17439;48.092;11.842;2022-11-15T17:41:12;3.20;;;1.90;;
30681;SDS011;17439;48.092;11.842;2022-11-15T17:43:40;3.58;;;1.73;;
30681;SDS011;17439;48.092;11.842;2022-11-15T17:46:11;3.17;;;1.60;;
30681;SDS011;17439;48.092;11.842;2022-11-15T17:48:43;5.97;;;1.70;;
30681;SDS011;17439;48.092;11.842;2022-11-15T17:51:13;3.75;;;2.05;;
30681;SDS011;17439;48.092;11.842;2022-11-15T17:53:43;4.25;;;2.13;;
30681;SDS011;17439;48.092;11.842;2022-11-15T17:56:12;6.25;;;1.77;;
30681;SDS011;17439;48.092;11.842;2022-11-15T17:58:41;5.80;;;2.28;;
30681;SDS011;17439;48.092;11.842;2022-11-15T18:01:20;2.47;;;1.60;;
30681;SDS011;17439;48.092;11.842;2022-11-15T18:03:50;4.43;;;2.38;;
30681;SDS011;17439;48.092;11.842;2022-11-15T18:08:46;4.75;;;2.78;;
30681;SDS011;17439;48.092;11.842;2022-11-15T18:11:16;5.13;;;2.25;;
30681;SDS011;17439;48.092;11.842;2022-11-15T18:13:45;10.20;;;2.70;;
30681;SDS011;17439;48.092;11.842;2022-11-15T18:16:19;6.07;;;3.15;;
30681;SDS011;17439;48.092;11.842;2022-11-15T18:18:47;9.73;;;2.97;;
30681;SDS011;17439;48.092;11.842;2022-11-15T18:21:16;6.97;;;3.53;;